Time;durP1;ratioP1;P1;durP2;ratioP2;P2;SDS_P1;SDS_P2;PMS_P1;PMS_P2;Temp;Humidity;BMP_temperature;BMP_pressure;BME280_temperature;BME280_humidity;BME280_pressure;Samples;Min_cycle;Max_cycle;Signal;HPM_P1;HPM_P2
2022/12/24 00:00:02;;;;;;;32.95;5.97;;;9.50;99.90;;;;;;4977907;28;20145;-60
2022/12/24 00:02:28;;;;;;;37.67;6.43;;;9.50;99.90;;;;;;4977508;28;20038;-60
2022/12/24 00:04:55;;;;;;;26.65;5.90;;;9.50;99.90;;;;;;4978227;28;20102;-61
2022/12/24 00:07:27;;;;;;;39.72;6.82;;;9.50;99.90;;;;;;4975690;28;20079;-61
2022/12/24 00:09:54;;;;;;;32.47;4.90;;;9.50;99.90;;;;;;4956131;28;20058;-61
2022/12/24 00:12:20;;;;;;;20.83;4.55;;;9.50;99.90;;;;;;4972131;28;20119;-61
2022/12/24 00:14:47;;;;;;;32.35;4.72;;;9.50;99.90;;;;;;4953793;28;20051;-61
2022/12/24 00:17:14;;;;;;;32.80;5.38;;;9.50;99.90;;;;;;4969404;28;20050;-61
2022/12/24 00:19:42;;;;;;;37.55;5.43;;;9.60;99.90;;;;;;4970016;28;20047;-60
2022/12/24 00:22:08;;;;;;;34.90;5.28;;;9.60;99.90;;;;;;4970121;28;20061;-62
2022/12/24 00:24:35;;;;;;;21.50;4.75;;;9.60;99.90;;;;;;4952309;28;20046;-62
2022/12/24 00:27:02;;;;;;;35.70;6.47;;;9.60;99.90;;;;;;4969198;28;20077;-60
2022/12/24 00:29:29;;;;;;;40.45;5.75;;;9.60;99.90;;;;;;4969837;28;20055;-60
2022/12/24 00:31:56;;;;;;;29.17;5.80;;;9.60;99.90;;;;;;4971080;28;20053;-61
2022/12/24 00:34:23;;;;;;;34.25;4.85;;;9.60;99.90;;;;;;4971327;28;20058;-60
2022/12/24 00:36:50;;;;;;;31.30;7.20;;;9.60;99.90;;;;;;4954998;28;20055;-61
2022/12/24 00:39:17;;;;;;;24.85;5.40;;;9.70;99.90;;;;;;4972028;28;20046;-61
2022/12/24 00:41:44;;;;;;;29.58;4.35;;;9.70;99.90;;;;;;4954709;28;21249;-61
2022/12/24 00:44:11;;;;;;;34.65;4.88;;;9.80;99.90;;;;;;4971690;28;20583;-61
2022/12/24 00:46:39;;;;;;;43.22;7.25;;;9.70;99.90;;;;;;4954807;28;20043;-61
2022/12/24 00:49:06;;;;;;;30.83;4.20;;;9.70;99.90;;;;;;4954885;28;20098;-61
2022/12/24 00:51:33;;;;;;;33.60;4.72;;;9.80;99.90;;;;;;4971548;28;20078;-60
2022/12/24 00:54:00;;;;;;;25.88;4.05;;;9.70;99.90;;;;;;4971729;28;20051;-61
2022/12/24 00:56:27;;;;;;;31.73;4.97;;;9.80;99.90;;;;;;4954190;28;20051;-60
2022/12/24 00:58:54;;;;;;;24.13;5.30;;;9.80;99.90;;;;;;4971961;28;20500;-61
2022/12/24 01:01:21;;;;;;;41.42;6.55;;;9.80;99.90;;;;;;4972672;28;20097;-62
2022/12/24 01:03:49;;;;;;;45.58;6.80;;;9.80;99.90;;;;;;4971990;28;20078;-61
2022/12/24 01:06:18;;;;;;;34.13;4.45;;;9.70;99.90;;;;;;4970995;28;20052;-62
2022/12/24 01:08:45;;;;;;;37.72;4.32;;;9.80;99.90;;;;;;4955141;28;20078;-61
2022/12/24 01:11:12;;;;;;;31.00;6.07;;;9.70;99.90;;;;;;4971100;28;20149;-61
2022/12/24 01:13:39;;;;;;;36.63;7.22;;;9.80;99.90;;;;;;4971315;28;20485;-61
2022/12/24 01:16:14;;;;;;;31.35;5.20;;;9.80;99.90;;;;;;4970479;28;20482;-61
2022/12/24 01:18:41;;;;;;;20.50;5.00;;;9.70;99.90;;;;;;4953982;28;20487;-60
2022/12/24 01:21:07;;;;;;;34.92;5.40;;;9.70;99.90;;;;;;4953424;28;20516;-60
2022/12/24 01:23:34;;;;;;;30.02;4.50;;;9.70;99.90;;;;;;4970656;28;20154;-61
2022/12/24 01:26:01;;;;;;;31.17;4.97;;;9.60;99.90;;;;;;4970012;28;20233;-61
2022/12/24 01:28:29;;;;;;;27.90;4.47;;;9.70;99.90;;;;;;4970634;28;20047;-60
2022/12/24 01:30:55;;;;;;;30.10;5.35;;;9.60;99.90;;;;;;4970811;28;20130;-61
2022/12/24 01:33:22;;;;;;;31.58;5.53;;;9.60;99.90;;;;;;4973950;28;20566;-61
2022/12/24 01:35:49;;;;;;;25.70;5.47;;;9.60;99.90;;;;;;4957225;28;20051;-60
2022/12/24 01:38:16;;;;;;;34.63;6.00;;;9.60;99.90;;;;;;4956847;28;20138;-60
2022/12/24 01:43:29;;;;;;;34.95;5.75;;;9.50;99.90;;;;;;4959577;28;20057;-61
2022/12/24 01:46:02;;;;;;;28.73;4.50;;;9.50;99.90;;;;;;4953416;29;20138;-61
2022/12/24 01:48:43;;;;;;;31.95;6.78;;;9.50;99.90;;;;;;4972425;28;20066;-63
2022/12/24 01:51:18;;;;;;;30.05;6.13;;;9.40;99.90;;;;;;4937930;29;20139;-61
2022/12/24 01:53:46;;;;;;;28.77;4.78;;;9.40;99.90;;;;;;4972317;28;20145;-61
2022/12/24 01:56:13;;;;;;;37.55;4.57;;;9.40;99.90;;;;;;4967162;28;20047;-60
2022/12/24 01:58:42;;;;;;;32.30;5.18;;;9.40;99.90;;;;;;4966301;28;20820;-61
2022/12/24 02:01:09;;;;;;;32.47;5.05;;;9.30;99.90;;;;;;4940306;28;20130;-61
2022/12/24 02:03:35;;;;;;;36.83;5.43;;;9.30;99.90;;;;;;4955584;28;20051;-61
2022/12/24 02:06:02;;;;;;;26.55;5.30;;;9.30;99.90;;;;;;4972789;28;20039;-61
2022/12/24 02:08:38;;;;;;;46.22;7.82;;;9.40;99.90;;;;;;4972781;28;20070;-60
2022/12/24 02:11:23;;;;;;;36.83;5.40;;;9.40;99.90;;;;;;4973235;28;20055;-60
2022/12/24 02:13:55;;;;;;;27.45;4.38;;;9.40;99.90;;;;;;4955634;28;20142;-60
2022/12/24 02:16:32;;;;;;;28.50;5.22;;;9.40;99.90;;;;;;4956807;28;20482;-60
2022/12/24 02:19:14;;;;;;;29.40;6.28;;;9.40;99.90;;;;;;4955348;28;20043;-61
2022/12/24 02:22:09;;;;;;;44.80;8.18;;;9.40;99.90;;;;;;4941141;28;20430;-60
2022/12/24 02:24:59;;;;;;;31.17;7.50;;;9.40;99.90;;;;;;4958467;28;20145;-61
2022/12/24 02:27:43;;;;;;;31.27;6.38;;;9.40;99.90;;;;;;4954021;28;20106;-58
2022/12/24 02:30:15;;;;;;;38.15;6.15;;;9.40;99.90;;;;;;4955278;28;20138;-61
2022/12/24 02:33:00;;;;;;;29.70;7.03;;;9.40;99.90;;;;;;4955598;28;20084;-60
2022/12/24 02:35:45;;;;;;;43.90;7.03;;;9.30;99.90;;;;;;4972723;28;20047;-60
2022/12/24 02:38:30;;;;;;;27.13;4.78;;;9.30;99.90;;;;;;4972900;28;20158;-61
2022/12/24 02:41:00;;;;;;;54.92;7.10;;;9.30;99.90;;;;;;4973072;28;20077;-60
2022/12/24 02:43:34;;;;;;;28.10;5.07;;;9.30;99.90;;;;;;4939271;28;20047;-60
2022/12/24 02:46:06;;;;;;;35.20;5.15;;;9.20;99.90;;;;;;4939308;28;20042;-60
2022/12/24 02:48:33;;;;;;;28.33;5.00;;;9.30;99.90;;;;;;4956650;28;20101;-60
2022/12/24 02:51:05;;;;;;;33.50;6.28;;;9.20;99.90;;;;;;4939064;28;20166;-59
2022/12/24 02:53:32;;;;;;;27.33;5.10;;;9.10;99.90;;;;;;4955720;28;20243;-60
2022/12/24 02:56:15;;;;;;;46.85;7.50;;;9.10;99.90;;;;;;4953099;28;20051;-60
2022/12/24 02:59:07;;;;;;;36.22;6.00;;;9.10;99.90;;;;;;4954202;28;20058;-60
2022/12/24 03:01:55;;;;;;;31.27;7.05;;;9.10;99.90;;;;;;4967848;28;20058;-60
2022/12/24 03:04:53;;;;;;;47.65;6.13;;;9.10;99.90;;;;;;4954340;28;20051;-60
2022/12/24 03:07:35;;;;;;;29.00;5.13;;;9.10;99.90;;;;;;4958754;28;20479;-59
2022/12/24 03:10:22;;;;;;;25.58;4.75;;;9.10;99.90;;;;;;4955892;28;20066;-59
2022/12/24 03:12:53;;;;;;;44.53;5.53;;;9.10;99.90;;;;;;4964023;28;20059;-60
2022/12/24 03:15:21;;;;;;;32.25;5.32;;;9.00;99.90;;;;;;4954469;28;20042;-59
2022/12/24 03:17:49;;;;;;;39.92;5.55;;;9.10;99.90;;;;;;4963405;28;20047;-60
2022/12/24 03:20:19;;;;;;;35.60;5.13;;;9.10;99.90;;;;;;4957051;28;20138;-59
2022/12/24 03:22:46;;;;;;;45.25;6.07;;;9.10;99.90;;;;;;4954783;28;20082;-60
2022/12/24 03:25:13;;;;;;;35.10;6.38;;;9.10;99.90;;;;;;4939076;28;20081;-60
2022/12/24 03:27:39;;;;;;;36.22;5.78;;;9.10;99.90;;;;;;4954057;28;20137;-61
2022/12/24 03:30:10;;;;;;;44.10;7.15;;;9.10;99.90;;;;;;4971832;28;20046;-60
2022/12/24 03:32:37;;;;;;;32.13;5.97;;;9.10;99.90;;;;;;4971763;28;20066;-59
2022/12/24 03:35:05;;;;;;;42.17;8.23;;;9.20;99.90;;;;;;4952875;29;20080;-60
2022/12/24 03:37:32;;;;;;;38.45;4.72;;;9.20;99.90;;;;;;4955434;28;20114;-59
2022/12/24 03:39:59;;;;;;;26.25;6.28;;;9.20;99.90;;;;;;4977350;28;20526;-60
2022/12/24 03:42:25;;;;;;;37.83;6.25;;;9.20;99.90;;;;;;4977988;28;20057;-61
2022/12/24 03:44:52;;;;;;;28.88;6.50;;;9.20;99.90;;;;;;4971795;28;20050;-62
2022/12/24 03:47:19;;;;;;;23.17;4.07;;;9.10;99.90;;;;;;4966470;28;20086;-60
2022/12/24 03:49:46;;;;;;;29.40;4.63;;;9.20;99.90;;;;;;4969514;28;20057;-61
2022/12/24 03:52:12;;;;;;;42.78;6.88;;;9.10;99.90;;;;;;4971253;28;20074;-61
2022/12/24 03:54:39;;;;;;;31.17;5.85;;;9.10;99.90;;;;;;4953730;28;20358;-61
2022/12/24 03:57:06;;;;;;;29.70;5.30;;;9.10;99.90;;;;;;4971007;28;20461;-61
2022/12/24 03:59:32;;;;;;;38.20;7.65;;;9.20;99.90;;;;;;4971163;28;20054;-61
2022/12/24 04:01:59;;;;;;;26.50;4.95;;;9.10;99.90;;;;;;4953693;28;20051;-60
2022/12/24 04:04:26;;;;;;;32.10;4.93;;;9.10;99.90;;;;;;4969179;28;20093;-61
2022/12/24 04:06:53;;;;;;;27.35;4.82;;;9.10;99.90;;;;;;4969781;28;20070;-61
2022/12/24 04:09:20;;;;;;;38.65;5.93;;;9.10;99.90;;;;;;4971942;28;20074;-61
2022/12/24 04:11:47;;;;;;;23.50;4.28;;;9.20;99.90;;;;;;4953931;28;20055;-61
2022/12/24 04:14:15;;;;;;;31.75;5.95;;;9.10;99.90;;;;;;4937697;28;20046;-61
2022/12/24 04:16:41;;;;;;;23.58;3.90;;;9.20;99.90;;;;;;4970873;28;20055;-61
2022/12/24 04:19:08;;;;;;;22.50;6.18;;;9.10;99.90;;;;;;4954170;28;20126;-60
2022/12/24 04:21:35;;;;;;;40.08;8.77;;;9.10;99.90;;;;;;4971237;28;20121;-61
2022/12/24 04:24:02;;;;;;;22.08;3.85;;;9.20;99.90;;;;;;4970334;28;20070;-61
2022/12/24 04:26:29;;;;;;;30.98;5.45;;;9.20;99.90;;;;;;4953205;28;20218;-61
2022/12/24 04:28:56;;;;;;;17.30;3.75;;;9.20;99.90;;;;;;4970587;28;20046;-61
2022/12/24 04:31:22;;;;;;;19.42;4.53;;;9.20;99.90;;;;;;4953822;28;20043;-60
2022/12/24 04:33:50;;;;;;;33.15;4.65;;;9.20;99.90;;;;;;4970525;28;20225;-60
2022/12/24 04:36:18;;;;;;;28.30;4.90;;;9.20;99.90;;;;;;4971449;28;20050;-60
2022/12/24 04:38:45;;;;;;;30.85;4.65;;;9.20;99.90;;;;;;4971145;28;20130;-60
2022/12/24 04:41:17;;;;;;;26.15;4.40;;;9.20;99.90;;;;;;4953501;28;20070;-59
2022/12/24 04:43:51;;;;;;;21.02;3.83;;;9.20;99.90;;;;;;4970611;28;20062;-60
2022/12/24 04:46:21;;;;;;;30.58;4.32;;;9.20;99.90;;;;;;4971163;28;20487;-60
2022/12/24 04:48:49;;;;;;;26.63;3.55;;;9.20;99.90;;;;;;4970630;28;20042;-60
2022/12/24 04:51:16;;;;;;;24.48;4.43;;;9.20;99.90;;;;;;4971588;28;20078;-60
2022/12/24 04:53:43;;;;;;;26.08;3.75;;;9.20;99.90;;;;;;4970630;28;20074;-60
2022/12/24 04:56:24;;;;;;;30.42;4.75;;;9.20;99.90;;;;;;4953332;28;20498;-60
2022/12/24 04:58:51;;;;;;;25.17;3.72;;;9.20;99.90;;;;;;4957673;28;20489;-60
2022/12/24 05:01:20;;;;;;;20.27;4.50;;;9.20;99.90;;;;;;4969965;28;20142;-60
2022/12/24 05:03:47;;;;;;;27.65;4.50;;;9.10;99.90;;;;;;4937260;28;20039;-60
2022/12/24 05:06:16;;;;;;;20.83;3.80;;;9.10;99.90;;;;;;4970424;28;20415;-61
2022/12/24 05:08:43;;;;;;;22.75;5.20;;;9.10;99.90;;;;;;4956952;28;20042;-61
2022/12/24 05:11:14;;;;;;;27.13;4.55;;;9.10;99.90;;;;;;4956608;28;20479;-63
2022/12/24 05:13:44;;;;;;;;;;;9.10;99.90;;;;;;4974222;28;20066;-61
2022/12/24 05:16:14;;;;;;;23.70;3.53;;;9.10;99.90;;;;;;4973406;28;20381;-61
2022/12/24 05:18:41;;;;;;;19.25;3.30;;;9.10;99.90;;;;;;4973475;28;20512;-60
2022/12/24 05:21:19;;;;;;;20.33;3.53;;;9.10;99.90;;;;;;4956208;28;20477;-60
2022/12/24 05:26:35;;;;;;;22.25;3.70;;;9.00;99.90;;;;;;4952996;28;20146;-61
2022/12/24 05:29:03;;;;;;;34.35;3.65;;;9.00;99.90;;;;;;4937289;28;20130;-60
2022/12/24 05:31:30;;;;;;;20.30;4.07;;;9.00;99.90;;;;;;4973638;28;20043;-61
2022/12/24 05:33:57;;;;;;;20.45;3.20;;;8.90;99.90;;;;;;4973386;28;20085;-60
2022/12/24 05:36:24;;;;;;;18.00;3.22;;;8.90;99.90;;;;;;4955688;28;20057;-60
2022/12/24 05:38:51;;;;;;;25.80;4.80;;;8.90;99.90;;;;;;4973884;28;20082;-61
2022/12/24 05:41:18;;;;;;;27.00;3.15;;;8.90;99.90;;;;;;4973557;28;20478;-60
2022/12/24 05:43:44;;;;;;;32.35;4.00;;;8.90;99.90;;;;;;4973971;28;20550;-61
2022/12/24 05:46:13;;;;;;;24.00;4.53;;;8.90;99.90;;;;;;4972947;28;20646;-61
2022/12/24 05:48:40;;;;;;;34.03;3.75;;;8.90;99.90;;;;;;4956069;28;20055;-60
2022/12/24 05:51:09;;;;;;;14.90;4.15;;;9.00;99.90;;;;;;4973969;28;20046;-60
2022/12/24 05:53:36;;;;;;;21.85;3.67;;;8.90;99.90;;;;;;4957148;28;20081;-60
2022/12/24 05:56:04;;;;;;;22.23;3.55;;;8.90;99.90;;;;;;4972658;28;20052;-61
2022/12/24 05:58:31;;;;;;;23.85;2.88;;;8.90;99.90;;;;;;4973189;28;20499;-60
2022/12/24 06:01:00;;;;;;;25.67;5.03;;;8.90;99.90;;;;;;4955754;28;20051;-60
2022/12/24 06:03:27;;;;;;;26.98;4.97;;;8.80;99.90;;;;;;4973342;28;20334;-59
2022/12/24 06:06:02;;;;;;;17.02;4.18;;;8.90;99.90;;;;;;4973142;28;20050;-60
2022/12/24 06:08:29;;;;;;;19.27;3.28;;;8.90;99.90;;;;;;4972969;28;20106;-59
2022/12/24 06:10:56;;;;;;;11.75;2.85;;;8.90;99.90;;;;;;4955805;28;20046;-59
2022/12/24 06:13:24;;;;;;;27.17;5.50;;;8.90;99.90;;;;;;4955418;28;20042;-61
2022/12/24 06:15:54;;;;;;;27.33;3.65;;;8.90;99.90;;;;;;4972864;28;20121;-60
2022/12/24 06:18:21;;;;;;;20.23;3.53;;;8.90;99.90;;;;;;4972394;28;20051;-60
2022/12/24 06:20:55;;;;;;;26.33;4.18;;;8.90;99.90;;;;;;4955762;28;20054;-60
2022/12/24 06:23:22;;;;;;;19.42;3.63;;;8.90;99.90;;;;;;4939908;28;20510;-62
2022/12/24 06:25:49;;;;;;;32.40;4.45;;;8.90;99.90;;;;;;4939583;28;20058;-60
2022/12/24 06:28:16;;;;;;;23.75;3.92;;;8.80;99.90;;;;;;4972360;28;20074;-60
2022/12/24 06:30:47;;;;;;;18.33;3.60;;;8.80;99.90;;;;;;4973215;28;20082;-60
2022/12/24 06:33:14;;;;;;;15.20;3.72;;;8.80;99.90;;;;;;4956263;28;20051;-60
2022/12/24 06:35:41;;;;;;;17.92;4.28;;;8.70;99.90;;;;;;4973641;28;20438;-60
2022/12/24 06:38:07;;;;;;;16.10;3.30;;;8.60;99.90;;;;;;4956193;28;20046;-60
2022/12/24 06:40:36;;;;;;;17.73;3.40;;;8.60;99.90;;;;;;4973421;28;20121;-60
2022/12/24 06:43:03;;;;;;;23.05;3.38;;;8.40;99.90;;;;;;4973189;28;20069;-59
2022/12/24 06:45:30;;;;;;;20.17;3.35;;;8.40;99.90;;;;;;4955963;28;20483;-60
2022/12/24 06:47:58;;;;;;;23.05;4.70;;;8.30;99.90;;;;;;4956518;28;20130;-60
2022/12/24 06:50:24;;;;;;;24.73;3.70;;;8.20;99.90;;;;;;4974212;28;20053;-60
2022/12/24 06:52:51;;;;;;;23.92;6.35;;;8.20;99.90;;;;;;4957158;28;20417;-60
2022/12/24 06:55:18;;;;;;;22.98;3.38;;;8.10;99.90;;;;;;4974062;28;20105;-60
2022/12/24 06:57:45;;;;;;;19.42;4.68;;;8.10;99.90;;;;;;4941223;28;20050;-60
2022/12/24 07:00:12;;;;;;;22.42;3.25;;;8.00;99.90;;;;;;4974559;28;20121;-60
2022/12/24 07:02:43;;;;;;;21.05;3.30;;;8.00;99.90;;;;;;4974031;28;20141;-60
2022/12/24 07:05:11;;;;;;;25.48;4.57;;;8.00;99.90;;;;;;4958468;28;20105;-61
2022/12/24 07:07:38;;;;;;;26.45;4.55;;;8.00;99.90;;;;;;4974822;28;20059;-61
2022/12/24 07:10:06;;;;;;;31.15;3.88;;;8.00;99.90;;;;;;4975930;28;20093;-60
2022/12/24 07:12:32;;;;;;;27.25;4.43;;;8.00;99.90;;;;;;4944818;28;20110;-60
2022/12/24 07:14:59;;;;;;;19.08;3.15;;;8.00;99.90;;;;;;4962073;28;20054;-62
2022/12/24 07:17:26;;;;;;;27.83;3.50;;;7.90;99.90;;;;;;4976891;28;20046;-61
2022/12/24 07:19:53;;;;;;;16.85;2.90;;;7.90;99.90;;;;;;4974370;28;20051;-61
2022/12/24 07:22:20;;;;;;;20.63;3.50;;;7.90;99.90;;;;;;4974004;28;20413;-61
2022/12/24 07:24:47;;;;;;;26.80;4.10;;;7.90;99.90;;;;;;4974043;28;20058;-61
2022/12/24 07:27:14;;;;;;;20.98;4.38;;;7.80;99.90;;;;;;4962563;28;20075;-61
2022/12/24 07:29:40;;;;;;;23.23;4.22;;;7.80;99.90;;;;;;4950552;28;20073;-61
2022/12/24 07:32:07;;;;;;;26.20;3.42;;;7.70;99.90;;;;;;4957279;28;20085;-61
2022/12/24 07:34:34;;;;;;;29.25;5.38;;;7.70;99.90;;;;;;4974206;28;20043;-60
2022/12/24 07:37:01;;;;;;;22.67;4.20;;;7.70;99.90;;;;;;4974313;28;20077;-63
2022/12/24 07:39:28;;;;;;;31.90;5.60;;;7.70;99.90;;;;;;4974157;28;20054;-61
2022/12/24 07:41:55;;;;;;;31.33;4.10;;;7.70;99.90;;;;;;4974543;28;20054;-60
2022/12/24 07:44:21;;;;;;;23.38;3.95;;;7.70;99.90;;;;;;4976245;28;20153;-61
2022/12/24 07:46:48;;;;;;;27.50;5.38;;;7.70;99.90;;;;;;4960912;28;20453;-61
2022/12/24 07:49:15;;;;;;;36.67;6.40;;;7.70;99.90;;;;;;4978070;28;20038;-61
2022/12/24 07:51:42;;;;;;;22.05;4.28;;;7.70;99.90;;;;;;4978321;28;20053;-60
2022/12/24 07:54:09;;;;;;;30.70;4.05;;;7.70;99.90;;;;;;4978782;28;20093;-61
2022/12/24 07:56:36;;;;;;;26.48;3.88;;;7.70;99.90;;;;;;4961567;28;20556;-61
2022/12/24 07:59:02;;;;;;;43.45;6.40;;;7.70;99.90;;;;;;4979119;28;20086;-61
2022/12/24 08:01:29;;;;;;;28.70;5.10;;;7.70;99.90;;;;;;4977253;28;20109;-60
2022/12/24 08:03:56;;;;;;;33.80;4.72;;;7.70;99.90;;;;;;4977868;28;20054;-60
2022/12/24 08:06:23;;;;;;;31.85;5.05;;;7.60;99.90;;;;;;4977884;28;20051;-61
2022/12/24 08:08:50;;;;;;;28.35;5.68;;;7.60;99.90;;;;;;4961323;28;20441;-61
2022/12/24 08:11:16;;;;;;;23.58;4.18;;;7.60;99.90;;;;;;4944026;28;20074;-61
2022/12/24 08:13:44;;;;;;;27.27;4.88;;;7.60;99.90;;;;;;4975614;28;20047;-61
2022/12/24 08:16:10;;;;;;;24.52;3.42;;;7.60;99.90;;;;;;4616847;28;10000425;-60
2022/12/24 08:18:37;;;;;;;24.98;4.75;;;7.50;99.90;;;;;;4956174;28;20055;-61
2022/12/24 08:21:07;;;;;;;30.55;5.55;;;7.50;99.90;;;;;;4972328;28;20088;-61
2022/12/24 08:23:35;;;;;;;24.95;4.65;;;7.50;99.90;;;;;;4955591;28;20093;-61
2022/12/24 08:26:02;;;;;;;23.05;4.30;;;7.50;99.90;;;;;;4937245;28;20130;-61
2022/12/24 08:28:28;;;;;;;18.02;4.40;;;7.40;99.90;;;;;;4971409;28;20102;-61
2022/12/24 08:30:55;;;;;;;23.95;4.50;;;7.40;99.90;;;;;;4954077;28;20492;-61
2022/12/24 08:33:22;;;;;;;26.90;4.10;;;7.50;99.90;;;;;;4970966;28;20061;-61
2022/12/24 08:35:49;;;;;;;21.33;3.63;;;7.40;99.90;;;;;;4953731;28;20202;-61
2022/12/24 08:38:16;;;;;;;33.75;6.15;;;7.50;99.90;;;;;;4951280;28;20066;-59
2022/12/24 08:40:43;;;;;;;25.55;5.05;;;7.50;99.90;;;;;;4935144;28;21246;-61
2022/12/24 08:43:10;;;;;;;27.73;4.25;;;7.50;99.90;;;;;;4968325;28;20046;-61
2022/12/24 08:45:39;;;;;;;21.35;4.57;;;7.50;99.90;;;;;;4968304;28;20118;-64
2022/12/24 08:48:07;;;;;;;27.85;4.55;;;7.50;99.90;;;;;;4967547;28;20047;-59
2022/12/24 08:50:35;;;;;;;28.60;5.72;;;7.50;99.90;;;;;;4967902;28;20085;-62
2022/12/24 08:53:01;;;;;;;35.53;5.60;;;7.50;99.90;;;;;;4965326;28;20432;-60
2022/12/24 08:55:28;;;;;;;27.00;5.07;;;7.50;99.90;;;;;;4967680;28;20395;-61
2022/12/24 08:57:58;;;;;;;21.83;4.97;;;7.40;99.90;;;;;;4964269;28;20146;-62
2022/12/24 09:00:25;;;;;;;28.25;4.32;;;7.40;99.90;;;;;;4953886;28;20574;-60
2022/12/24 09:02:52;;;;;;;19.55;4.15;;;7.40;99.90;;;;;;4968039;28;20150;-60
2022/12/24 09:05:19;;;;;;;20.17;4.18;;;7.40;99.90;;;;;;4946045;28;20050;-61
2022/12/24 09:07:46;;;;;;;22.00;4.63;;;7.40;99.90;;;;;;4950476;28;20101;-61
2022/12/24 09:10:12;;;;;;;22.90;4.07;;;7.30;99.90;;;;;;4951050;28;20130;-60
2022/12/24 09:12:39;;;;;;;35.70;9.07;;;7.30;99.90;;;;;;4950450;28;20070;-60
2022/12/24 09:15:07;;;;;;;20.00;4.53;;;7.30;99.90;;;;;;4977108;28;20057;-60
2022/12/24 09:17:34;;;;;;;24.92;4.38;;;7.30;99.90;;;;;;4965962;28;20082;-60
2022/12/24 09:20:02;;;;;;;28.58;4.47;;;7.30;99.90;;;;;;4968615;28;20047;-61
2022/12/24 09:22:29;;;;;;;22.90;4.30;;;7.30;99.90;;;;;;4967004;28;20055;-61
2022/12/24 09:24:55;;;;;;;31.90;4.85;;;7.40;99.90;;;;;;4967065;28;20414;-62
2022/12/24 09:27:22;;;;;;;23.92;4.45;;;7.40;99.90;;;;;;4954897;28;20044;-61
2022/12/24 09:29:49;;;;;;;31.67;4.82;;;7.40;99.90;;;;;;4966856;28;20562;-62
2022/12/24 09:32:16;;;;;;;30.23;4.57;;;7.40;99.90;;;;;;4967143;28;20059;-62
2022/12/24 09:34:43;;;;;;;27.02;4.03;;;7.50;99.90;;;;;;4949450;28;20062;-61
2022/12/24 09:37:09;;;;;;;26.83;5.07;;;7.50;99.90;;;;;;4949995;28;20073;-62
2022/12/24 09:39:36;;;;;;;29.15;6.93;;;7.50;99.90;;;;;;4966106;28;20076;-62
2022/12/24 09:42:31;;;;;;;24.42;5.88;;;7.60;99.90;;;;;;4966792;28;20055;-62
2022/12/24 09:45:19;;;;;;;22.00;4.53;;;7.60;99.90;;;;;;4934983;28;20337;-61
2022/12/24 09:47:54;;;;;;;37.08;5.20;;;7.70;99.90;;;;;;4967265;28;20086;-60
2022/12/24 09:50:40;;;;;;;26.38;4.72;;;7.70;99.90;;;;;;4248875;28;10000342;-61
2022/12/24 09:53:34;;;;;;;30.63;5.65;;;7.70;99.90;;;;;;4966695;28;20062;-61
2022/12/24 09:56:03;;;;;;;19.10;4.82;;;7.80;99.90;;;;;;4934025;28;20059;-62
2022/12/24 09:58:38;;;;;;;29.35;3.65;;;7.90;99.90;;;;;;4922459;28;20145;-60
2022/12/24 10:01:05;;;;;;;27.10;3.90;;;7.90;99.90;;;;;;4927897;28;20092;-61
2022/12/24 10:03:32;;;;;;;20.15;3.92;;;7.90;99.90;;;;;;4970209;28;20057;-60
2022/12/24 10:06:22;;;;;;;25.40;5.20;;;7.90;99.90;;;;;;4953483;28;20074;-62
2022/12/24 10:08:57;;;;;;;16.17;3.10;;;8.00;99.90;;;;;;4953600;28;20390;-62
2022/12/24 10:11:49;;;;;;;21.00;5.20;;;8.10;99.90;;;;;;4960030;28;20074;-62
2022/12/24 10:14:53;;;;;;;20.38;4.68;;;8.10;99.90;;;;;;4938085;28;20055;-62
2022/12/24 10:17:38;;;;;;;22.23;4.28;;;8.20;99.90;;;;;;4969887;28;20145;-62
2022/12/24 10:20:13;;;;;;;21.30;3.30;;;8.20;99.90;;;;;;4952975;28;20133;-61
2022/12/24 10:22:50;;;;;;;18.55;3.53;;;8.30;99.90;;;;;;4953765;28;20142;-61
2022/12/24 10:25:37;;;;;;;20.33;2.95;;;8.30;99.90;;;;;;4969350;28;20062;-61
2022/12/24 10:28:07;;;;;;;26.48;4.13;;;8.40;99.90;;;;;;4966490;28;20097;-61
2022/12/24 10:30:34;;;;;;;27.08;4.10;;;8.40;99.90;;;;;;4937058;28;20046;-60
2022/12/24 10:33:01;;;;;;;24.08;3.97;;;8.50;99.90;;;;;;4937591;28;20130;-61
2022/12/24 10:35:36;;;;;;;28.52;3.88;;;8.50;99.90;;;;;;4937046;28;20055;-60
2022/12/24 10:38:03;;;;;;;20.65;4.07;;;8.60;99.90;;;;;;4936407;28;20142;-61
2022/12/24 10:40:42;;;;;;;31.13;5.10;;;8.60;99.90;;;;;;4952719;28;20070;-61
2022/12/24 10:43:20;;;;;;;22.75;3.83;;;8.60;99.90;;;;;;4953291;28;20434;-61
2022/12/24 10:46:00;;;;;;;18.30;3.55;;;8.60;99.90;;;;;;4970295;28;20402;-61
2022/12/24 10:48:42;;;;;;;27.65;4.47;;;8.60;99.90;;;;;;4952742;28;20293;-61
2022/12/24 10:51:25;;;;;;;20.52;4.13;;;8.70;99.90;;;;;;4940505;28;20078;-63
2022/12/24 10:54:15;;;;;;;29.33;4.78;;;8.70;99.90;;;;;;4936482;28;20522;-62
2022/12/24 10:56:58;;;;;;;23.23;3.67;;;8.70;99.90;;;;;;4966954;28;20828;-61
2022/12/24 10:59:51;;;;;;;25.05;4.95;;;8.80;99.90;;;;;;4933491;29;20059;-60
2022/12/24 11:02:34;;;;;;;14.35;3.80;;;8.80;99.90;;;;;;4950222;28;20506;-61
2022/12/24 11:05:09;;;;;;;28.17;3.80;;;8.90;99.90;;;;;;4934719;28;20059;-61
2022/12/24 11:07:37;;;;;;;17.30;3.45;;;9.00;99.90;;;;;;4951894;28;20104;-59
2022/12/24 11:10:05;;;;;;;25.83;4.95;;;9.00;99.90;;;;;;4951288;28;20084;-61
2022/12/24 11:12:37;;;;;;;25.10;3.83;;;9.00;99.90;;;;;;4967937;28;20043;-61
2022/12/24 11:15:07;;;;;;;30.65;5.15;;;9.10;99.90;;;;;;4935827;28;20125;-60
2022/12/24 11:17:33;;;;;;;16.27;4.15;;;9.10;99.90;;;;;;4936045;28;20054;-62
2022/12/24 11:20:03;;;;;;;30.00;4.25;;;9.20;99.90;;;;;;4918109;29;20047;-62
2022/12/24 11:22:30;;;;;;;18.40;3.67;;;9.20;99.90;;;;;;4950288;28;20525;-61
2022/12/24 11:25:23;;;;;;;26.08;6.30;;;9.30;99.90;;;;;;4951134;28;20580;-62
2022/12/24 11:27:50;;;;;;;14.98;2.92;;;9.40;99.90;;;;;;4949602;28;20047;-61
2022/12/24 11:30:21;;;;;;;21.65;3.22;;;9.40;99.90;;;;;;4968345;28;20402;-61
2022/12/24 11:32:49;;;;;;;26.48;4.72;;;9.50;99.90;;;;;;4935700;28;20510;-61
2022/12/24 11:35:17;;;;;;;19.27;3.90;;;9.50;99.90;;;;;;4968145;28;20086;-62
2022/12/24 11:37:44;;;;;;;19.38;3.85;;;9.60;99.90;;;;;;4950737;28;20086;-61
2022/12/24 11:40:21;;;;;;;19.88;4.25;;;9.60;99.90;;;;;;4950910;28;20267;-60
2022/12/24 11:42:52;;;;;;;21.45;5.15;;;9.60;99.90;;;;;;4951355;28;20055;-60
2022/12/24 11:45:23;;;;;;;28.10;5.20;;;9.70;99.90;;;;;;4950565;28;20051;-60
2022/12/24 11:47:50;;;;;;;29.52;4.20;;;9.70;99.90;;;;;;4950448;28;20050;-60
2022/12/24 11:50:30;;;;;;;23.48;4.32;;;9.80;99.90;;;;;;4935503;28;20157;-59
2022/12/24 11:53:09;;;;;;;28.33;6.25;;;9.80;99.90;;;;;;4977148;28;20051;-60
2022/12/24 11:55:55;;;;;;;37.88;7.78;;;9.90;99.90;;;;;;4949702;28;20137;-60
2022/12/24 11:58:46;;;;;;;38.28;7.45;;;10.00;99.90;;;;;;4953406;28;20066;-60
2022/12/24 12:01:28;;;;;;;35.55;5.15;;;10.00;99.90;;;;;;4924101;28;20082;-60
2022/12/24 12:03:57;;;;;;;28.98;6.07;;;10.10;99.90;;;;;;4961209;28;20047;-60
2022/12/24 12:06:26;;;;;;;31.65;6.88;;;10.20;99.90;;;;;;4918563;28;20054;-61
2022/12/24 12:09:02;;;;;;;36.50;5.80;;;10.20;99.90;;;;;;4949914;28;20051;-60
2022/12/24 12:11:28;;;;;;;34.25;8.80;;;10.20;99.90;;;;;;4934179;28;20051;-61
2022/12/24 12:13:57;;;;;;;47.80;9.02;;;10.30;99.90;;;;;;4945421;28;20051;-61
2022/12/24 12:16:29;;;;;;;42.65;10.63;;;10.30;99.90;;;;;;4933471;28;20234;-61
2022/12/24 12:19:00;;;;;;;29.20;6.38;;;10.30;99.90;;;;;;4949984;28;20107;-60
2022/12/24 12:21:49;;;;;;;33.33;6.07;;;10.30;99.90;;;;;;4949991;28;20054;-61
2022/12/24 12:24:20;;;;;;;42.63;5.70;;;10.30;99.90;;;;;;4966564;28;20102;-60
2022/12/24 12:27:05;;;;;;;32.45;6.40;;;10.30;99.90;;;;;;4935477;28;20059;-61
2022/12/24 12:29:35;;;;;;;31.88;5.00;;;10.30;99.90;;;;;;4934505;28;20093;-61
2022/12/24 12:32:05;;;;;;;46.55;8.75;;;10.40;99.90;;;;;;4934517;28;20101;-61
2022/12/24 12:34:41;;;;;;;30.80;6.07;;;10.40;99.90;;;;;;4933019;28;20137;-62
2022/12/24 12:37:13;;;;;;;38.65;5.68;;;10.40;99.90;;;;;;4947468;29;20082;-61
2022/12/24 12:39:41;;;;;;;23.73;4.55;;;10.40;99.90;;;;;;4924643;28;20109;-62
2022/12/24 12:42:19;;;;;;;27.35;5.65;;;10.50;99.90;;;;;;4954293;28;20054;-61
2022/12/24 12:44:45;;;;;;;37.10;5.55;;;10.50;99.90;;;;;;4953946;28;20057;-60
2022/12/24 12:47:39;;;;;;;38.58;7.88;;;10.50;99.90;;;;;;4970286;28;20114;-61
2022/12/24 12:50:30;;;;;;;32.83;6.63;;;10.50;99.90;;;;;;4947693;28;20266;-61
2022/12/24 12:53:22;;;;;;;27.40;4.50;;;10.50;99.90;;;;;;4942268;28;20118;-60
2022/12/24 12:56:28;;;;;;;28.67;5.88;;;10.50;99.90;;;;;;4953940;28;20062;-60
2022/12/24 12:59:00;;;;;;;23.23;4.25;;;10.60;99.90;;;;;;4931663;29;20139;-61
2022/12/24 13:01:48;;;;;;;31.52;8.65;;;10.60;99.90;;;;;;4915894;29;20227;-61
2022/12/24 13:04:34;;;;;;;30.45;6.47;;;10.60;99.90;;;;;;4947413;28;20490;-60
2022/12/24 13:07:32;;;;;;;23.13;6.38;;;10.60;99.90;;;;;;4975880;28;20059;-61
2022/12/24 13:10:09;;;;;;;35.28;5.35;;;10.60;99.90;;;;;;4974371;28;20055;-61